sensor_id;sensor_type;location;lat;lon;timestamp;temperature;humidity
1175;DHT22;576;48.418;10.074;2023-06-19T00:00:59;28.10;52.10
1175;DHT22;576;48.418;10.074;2023-06-19T00:03:27;28.10;52.10
1175;DHT22;576;48.418;10.074;2023-06-19T00:05:56;28.10;52.10
1175;DHT22;576;48.418;10.074;2023-06-19T00:08:24;28.10;52.20
1175;DHT22;576;48.418;10.074;2023-06-19T00:10:54;28.10;52.10
1175;DHT22;576;48.418;10.074;2023-06-19T00:13:22;28.10;52.10
1175;DHT22;576;48.418;10.074;2023-06-19T00:15:50;28.10;52.10
1175;DHT22;576;48.418;10.074;2023-06-19T00:18:19;28.10;52.10
1175;DHT22;576;48.418;10.074;2023-06-19T00:20:47;28.10;52.10
1175;DHT22;576;48.418;10.074;2023-06-19T00:23:16;28.10;52.10
1175;DHT22;576;48.418;10.074;2023-06-19T00:25:44;28.10;52.10
1175;DHT22;576;48.418;10.074;2023-06-19T00:28:14;28.10;52.10
1175;DHT22;576;48.418;10.074;2023-06-19T00:30:46;28.10;52.00
1175;DHT22;576;48.418;10.074;2023-06-19T00:33:14;28.10;52.10
1175;DHT22;576;48.418;10.074;2023-06-19T00:35:44;28.10;52.10
1175;DHT22;576;48.418;10.074;2023-06-19T00:38:12;28.10;52.10
1175;DHT22;576;48.418;10.074;2023-06-19T00:40:40;28.10;52.10
1175;DHT22;576;48.418;10.074;2023-06-19T00:43:09;28.10;52.10
1175;DHT22;576;48.418;10.074;2023-06-19T00:45:38;28.10;52.10
1175;DHT22;576;48.418;10.074;2023-06-19T00:48:07;28.10;52.30
1175;DHT22;576;48.418;10.074;2023-06-19T00:50:35;28.10;52.20
1175;DHT22;576;48.418;10.074;2023-06-19T00:53:05;28.10;52.40
1175;DHT22;576;48.418;10.074;2023-06-19T00:55:34;28.10;52.20
1175;DHT22;576;48.418;10.074;2023-06-19T00:58:03;28.10;52.20
1175;DHT22;576;48.418;10.074;2023-06-19T01:00:31;28.10;52.20
1175;DHT22;576;48.418;10.074;2023-06-19T01:03:00;28.10;52.30
1175;DHT22;576;48.418;10.074;2023-06-19T01:05:29;28.10;52.40
1175;DHT22;576;48.418;10.074;2023-06-19T01:08:00;28.10;52.30
1175;DHT22;576;48.418;10.074;2023-06-19T01:10:35;28.10;52.30
1175;DHT22;576;48.418;10.074;2023-06-19T01:13:08;28.00;52.40
1175;DHT22;576;48.418;10.074;2023-06-19T01:15:39;28.00;52.40
1175;DHT22;576;48.418;10.074;2023-06-19T01:18:09;28.10;52.40
1175;DHT22;576;48.418;10.074;2023-06-19T01:20:39;28.10;52.40
1175;DHT22;576;48.418;10.074;2023-06-19T01:23:10;28.10;52.40
1175;DHT22;576;48.418;10.074;2023-06-19T01:25:38;28.10;52.40
1175;DHT22;576;48.418;10.074;2023-06-19T01:28:09;28.10;52.50
1175;DHT22;576;48.418;10.074;2023-06-19T01:30:43;28.10;52.50
1175;DHT22;576;48.418;10.074;2023-06-19T01:33:16;28.10;52.50
1175;DHT22;576;48.418;10.074;2023-06-19T01:35:48;28.10;52.60
1175;DHT22;576;48.418;10.074;2023-06-19T01:38:20;28.10;52.60
1175;DHT22;576;48.418;10.074;2023-06-19T01:40:49;28.10;52.60
1175;DHT22;576;48.418;10.074;2023-06-19T01:43:18;28.10;52.60
1175;DHT22;576;48.418;10.074;2023-06-19T01:45:47;28.00;52.70
1175;DHT22;576;48.418;10.074;2023-06-19T01:48:15;28.00;52.70
1175;DHT22;576;48.418;10.074;2023-06-19T01:50:45;28.00;52.70
1175;DHT22;576;48.418;10.074;2023-06-19T01:53:14;28.00;52.70
1175;DHT22;576;48.418;10.074;2023-06-19T01:55:43;28.00;52.70
1175;DHT22;576;48.418;10.074;2023-06-19T01:58:12;28.00;52.70
1175;DHT22;576;48.418;10.074;2023-06-19T02:00:40;28.00;52.70
1175;DHT22;576;48.418;10.074;2023-06-19T02:03:09;28.00;52.80
1175;DHT22;576;48.418;10.074;2023-06-19T02:05:37;28.00;52.80
1175;DHT22;576;48.418;10.074;2023-06-19T02:08:07;28.00;52.90
1175;DHT22;576;48.418;10.074;2023-06-19T02:10:36;28.00;52.90
1175;DHT22;576;48.418;10.074;2023-06-19T02:13:05;28.00;52.90
1175;DHT22;576;48.418;10.074;2023-06-19T02:15:34;28.00;52.90
1175;DHT22;576;48.418;10.074;2023-06-19T02:18:02;28.00;52.90
1175;DHT22;576;48.418;10.074;2023-06-19T02:20:31;28.00;53.00
1175;DHT22;576;48.418;10.074;2023-06-19T02:22:59;28.00;53.00
1175;DHT22;576;48.418;10.074;2023-06-19T02:25:29;28.00;53.10
1175;DHT22;576;48.418;10.074;2023-06-19T02:27:57;28.00;53.10
1175;DHT22;576;48.418;10.074;2023-06-19T02:30:27;28.00;53.10
1175;DHT22;576;48.418;10.074;2023-06-19T02:32:55;28.00;53.20
1175;DHT22;576;48.418;10.074;2023-06-19T02:35:25;28.00;53.20
1175;DHT22;576;48.418;10.074;2023-06-19T02:37:55;28.00;53.20
1175;DHT22;576;48.418;10.074;2023-06-19T02:40:24;28.00;53.20
1175;DHT22;576;48.418;10.074;2023-06-19T02:42:53;28.00;53.20
1175;DHT22;576;48.418;10.074;2023-06-19T02:45:21;28.00;53.30
1175;DHT22;576;48.418;10.074;2023-06-19T02:47:51;28.00;53.30
1175;DHT22;576;48.418;10.074;2023-06-19T02:50:20;28.00;53.30
1175;DHT22;576;48.418;10.074;2023-06-19T02:52:49;27.90;53.30
1175;DHT22;576;48.418;10.074;2023-06-19T02:55:17;28.00;53.40
1175;DHT22;576;48.418;10.074;2023-06-19T02:57:45;28.00;53.50
1175;DHT22;576;48.418;10.074;2023-06-19T03:00:15;27.90;53.50
1175;DHT22;576;48.418;10.074;2023-06-19T03:02:44;27.90;53.50
1175;DHT22;576;48.418;10.074;2023-06-19T03:05:14;27.90;53.50
1175;DHT22;576;48.418;10.074;2023-06-19T03:07:43;27.90;53.50
1175;DHT22;576;48.418;10.074;2023-06-19T03:10:11;27.90;53.50
1175;DHT22;576;48.418;10.074;2023-06-19T03:12:40;27.90;53.60
1175;DHT22;576;48.418;10.074;2023-06-19T03:15:09;27.90;53.50
1175;DHT22;576;48.418;10.074;2023-06-19T03:17:41;27.90;53.60
1175;DHT22;576;48.418;10.074;2023-06-19T03:20:13;27.90;53.60
1175;DHT22;576;48.418;10.074;2023-06-19T03:22:49;27.90;53.70
1175;DHT22;576;48.418;10.074;2023-06-19T03:25:18;27.90;53.70
1175;DHT22;576;48.418;10.074;2023-06-19T03:27:47;27.90;53.80
1175;DHT22;576;48.418;10.074;2023-06-19T03:30:16;27.90;53.80
1175;DHT22;576;48.418;10.074;2023-06-19T03:32:48;27.90;53.80
1175;DHT22;576;48.418;10.074;2023-06-19T03:35:36;27.90;53.80
1175;DHT22;576;48.418;10.074;2023-06-19T03:38:04;27.90;53.80
1175;DHT22;576;48.418;10.074;2023-06-19T03:40:34;27.80;53.80
1175;DHT22;576;48.418;10.074;2023-06-19T03:43:08;27.80;53.90
1175;DHT22;576;48.418;10.074;2023-06-19T03:45:37;27.80;53.90
1175;DHT22;576;48.418;10.074;2023-06-19T03:48:06;27.80;53.90
1175;DHT22;576;48.418;10.074;2023-06-19T03:50:35;27.80;53.90
1175;DHT22;576;48.418;10.074;2023-06-19T03:53:03;27.80;53.90
1175;DHT22;576;48.418;10.074;2023-06-19T03:55:32;27.80;53.90
1175;DHT22;576;48.418;10.074;2023-06-19T03:58:00;27.90;53.90
1175;DHT22;576;48.418;10.074;2023-06-19T04:00:29;27.80;53.90
1175;DHT22;576;48.418;10.074;2023-06-19T04:02:57;27.90;53.90
1175;DHT22;576;48.418;10.074;2023-06-19T04:05:25;27.80;53.90
1175;DHT22;576;48.418;10.074;2023-06-19T04:07:55;27.90;53.90
1175;DHT22;576;48.418;10.074;2023-06-19T04:10:23;27.90;53.90
1175;DHT22;576;48.418;10.074;2023-06-19T04:12:53;27.80;54.00
1175;DHT22;576;48.418;10.074;2023-06-19T04:15:22;27.80;54.00
1175;DHT22;576;48.418;10.074;2023-06-19T04:17:51;27.80;54.00
1175;DHT22;576;48.418;10.074;2023-06-19T04:20:19;27.90;53.90
1175;DHT22;576;48.418;10.074;2023-06-19T04:22:47;27.80;53.90
1175;DHT22;576;48.418;10.074;2023-06-19T04:25:17;27.80;54.00
1175;DHT22;576;48.418;10.074;2023-06-19T04:27:46;27.80;53.90
1175;DHT22;576;48.418;10.074;2023-06-19T04:30:14;27.80;53.90
1175;DHT22;576;48.418;10.074;2023-06-19T04:32:43;27.80;54.00
1175;DHT22;576;48.418;10.074;2023-06-19T04:35:11;27.80;54.00
1175;DHT22;576;48.418;10.074;2023-06-19T04:37:39;27.80;54.00
1175;DHT22;576;48.418;10.074;2023-06-19T04:40:08;27.90;53.90
1175;DHT22;576;48.418;10.074;2023-06-19T04:42:39;27.90;54.00
1175;DHT22;576;48.418;10.074;2023-06-19T04:45:07;27.90;53.90
1175;DHT22;576;48.418;10.074;2023-06-19T04:47:36;27.90;53.90
1175;DHT22;576;48.418;10.074;2023-06-19T04:50:19;27.90;53.70
1175;DHT22;576;48.418;10.074;2023-06-19T04:52:48;27.90;53.70
1175;DHT22;576;48.418;10.074;2023-06-19T04:55:19;27.90;53.80
1175;DHT22;576;48.418;10.074;2023-06-19T04:57:48;27.90;53.90
1175;DHT22;576;48.418;10.074;2023-06-19T05:00:17;27.90;53.80
1175;DHT22;576;48.418;10.074;2023-06-19T05:02:47;27.90;53.80
1175;DHT22;576;48.418;10.074;2023-06-19T05:05:15;27.90;53.80
1175;DHT22;576;48.418;10.074;2023-06-19T05:07:45;27.90;53.80
1175;DHT22;576;48.418;10.074;2023-06-19T05:10:13;27.90;53.80
1175;DHT22;576;48.418;10.074;2023-06-19T05:12:42;27.90;53.70
1175;DHT22;576;48.418;10.074;2023-06-19T05:15:12;27.90;53.70
1175;DHT22;576;48.418;10.074;2023-06-19T05:17:40;27.90;53.70
1175;DHT22;576;48.418;10.074;2023-06-19T05:20:10;27.90;53.80
1175;DHT22;576;48.418;10.074;2023-06-19T05:22:39;27.90;53.90
1175;DHT22;576;48.418;10.074;2023-06-19T05:25:08;27.90;53.80
1175;DHT22;576;48.418;10.074;2023-06-19T05:27:36;27.90;54.00
1175;DHT22;576;48.418;10.074;2023-06-19T05:30:05;27.90;54.00
1175;DHT22;576;48.418;10.074;2023-06-19T05:32:35;27.90;54.00
1175;DHT22;576;48.418;10.074;2023-06-19T05:35:04;27.90;54.00
1175;DHT22;576;48.418;10.074;2023-06-19T05:37:33;27.90;54.10
1175;DHT22;576;48.418;10.074;2023-06-19T05:40:01;27.90;54.00
1175;DHT22;576;48.418;10.074;2023-06-19T05:42:30;27.90;53.90
1175;DHT22;576;48.418;10.074;2023-06-19T05:44:58;27.90;53.90
1175;DHT22;576;48.418;10.074;2023-06-19T05:47:27;27.90;53.80
1175;DHT22;576;48.418;10.074;2023-06-19T05:49:58;27.90;53.70
1175;DHT22;576;48.418;10.074;2023-06-19T05:52:27;27.90;53.70
1175;DHT22;576;48.418;10.074;2023-06-19T05:54:55;27.90;53.60
1175;DHT22;576;48.418;10.074;2023-06-19T05:57:25;27.90;53.70
1175;DHT22;576;48.418;10.074;2023-06-19T05:59:53;27.90;53.80
1175;DHT22;576;48.418;10.074;2023-06-19T06:02:21;27.90;53.80
1175;DHT22;576;48.418;10.074;2023-06-19T06:04:50;27.90;53.70
1175;DHT22;576;48.418;10.074;2023-06-19T06:07:19;27.90;53.70
1175;DHT22;576;48.418;10.074;2023-06-19T06:09:48;27.90;53.70
1175;DHT22;576;48.418;10.074;2023-06-19T06:12:16;27.90;53.60
1175;DHT22;576;48.418;10.074;2023-06-19T06:14:44;27.90;53.80
1175;DHT22;576;48.418;10.074;2023-06-19T06:17:12;27.90;53.70
1175;DHT22;576;48.418;10.074;2023-06-19T06:19:41;27.90;53.70
1175;DHT22;576;48.418;10.074;2023-06-19T06:22:09;27.90;53.70
1175;DHT22;576;48.418;10.074;2023-06-19T06:24:38;27.90;53.70
1175;DHT22;576;48.418;10.074;2023-06-19T06:27:07;27.90;53.60
1175;DHT22;576;48.418;10.074;2023-06-19T06:29:35;27.90;53.60
1175;DHT22;576;48.418;10.074;2023-06-19T06:32:05;27.90;53.60
1175;DHT22;576;48.418;10.074;2023-06-19T06:34:34;27.90;53.70
1175;DHT22;576;48.418;10.074;2023-06-19T06:37:03;27.90;53.60
1175;DHT22;576;48.418;10.074;2023-06-19T06:39:32;27.90;53.60
1175;DHT22;576;48.418;10.074;2023-06-19T06:42:03;27.90;53.60
1175;DHT22;576;48.418;10.074;2023-06-19T06:44:32;27.90;53.50
1175;DHT22;576;48.418;10.074;2023-06-19T06:47:01;27.90;53.60
1175;DHT22;576;48.418;10.074;2023-06-19T06:49:29;27.90;53.50
1175;DHT22;576;48.418;10.074;2023-06-19T06:51:57;27.90;53.60
1175;DHT22;576;48.418;10.074;2023-06-19T06:54:25;27.90;53.50
1175;DHT22;576;48.418;10.074;2023-06-19T06:56:54;28.00;53.50
1175;DHT22;576;48.418;10.074;2023-06-19T06:59:26;28.00;53.60
1175;DHT22;576;48.418;10.074;2023-06-19T07:01:55;28.00;53.70
1175;DHT22;576;48.418;10.074;2023-06-19T07:04:24;28.00;53.50
1175;DHT22;576;48.418;10.074;2023-06-19T07:06:52;28.00;53.60
1175;DHT22;576;48.418;10.074;2023-06-19T07:09:21;28.00;53.60
1175;DHT22;576;48.418;10.074;2023-06-19T07:11:49;28.10;53.40
1175;DHT22;576;48.418;10.074;2023-06-19T07:14:20;28.00;53.60
1175;DHT22;576;48.418;10.074;2023-06-19T07:16:50;28.10;53.40
1175;DHT22;576;48.418;10.074;2023-06-19T07:19:18;28.10;53.30
1175;DHT22;576;48.418;10.074;2023-06-19T07:21:47;28.10;53.30
1175;DHT22;576;48.418;10.074;2023-06-19T07:24:15;28.10;53.30
1175;DHT22;576;48.418;10.074;2023-06-19T07:26:45;28.10;53.40
1175;DHT22;576;48.418;10.074;2023-06-19T07:29:14;28.10;53.30
1175;DHT22;576;48.418;10.074;2023-06-19T07:31:42;28.10;53.40
1175;DHT22;576;48.418;10.074;2023-06-19T07:34:12;28.10;53.30
1175;DHT22;576;48.418;10.074;2023-06-19T07:36:41;28.10;53.40
1175;DHT22;576;48.418;10.074;2023-06-19T07:39:09;28.10;53.50
1175;DHT22;576;48.418;10.074;2023-06-19T07:41:37;28.10;53.50
1175;DHT22;576;48.418;10.074;2023-06-19T07:44:06;28.10;53.90
1175;DHT22;576;48.418;10.074;2023-06-19T07:46:34;28.10;54.10
1175;DHT22;576;48.418;10.074;2023-06-19T07:49:02;28.10;54.30
1175;DHT22;576;48.418;10.074;2023-06-19T07:51:32;28.10;54.40
1175;DHT22;576;48.418;10.074;2023-06-19T07:54:00;28.10;54.40
1175;DHT22;576;48.418;10.074;2023-06-19T07:56:29;28.10;54.50
1175;DHT22;576;48.418;10.074;2023-06-19T07:58:57;28.20;54.50
1175;DHT22;576;48.418;10.074;2023-06-19T08:01:25;28.20;54.50
1175;DHT22;576;48.418;10.074;2023-06-19T08:03:53;28.20;54.70
1175;DHT22;576;48.418;10.074;2023-06-19T08:06:22;28.20;54.80
1175;DHT22;576;48.418;10.074;2023-06-19T08:08:51;28.20;54.90
1175;DHT22;576;48.418;10.074;2023-06-19T08:11:19;28.20;55.00
1175;DHT22;576;48.418;10.074;2023-06-19T08:13:48;28.20;55.00
1175;DHT22;576;48.418;10.074;2023-06-19T08:16:16;28.20;55.10
1175;DHT22;576;48.418;10.074;2023-06-19T08:18:45;28.20;55.00
1175;DHT22;576;48.418;10.074;2023-06-19T08:21:14;28.30;54.90
1175;DHT22;576;48.418;10.074;2023-06-19T08:23:42;28.30;54.90
1175;DHT22;576;48.418;10.074;2023-06-19T08:26:12;28.30;55.00
1175;DHT22;576;48.418;10.074;2023-06-19T08:28:40;28.30;54.90
1175;DHT22;576;48.418;10.074;2023-06-19T08:31:09;28.30;55.00
1175;DHT22;576;48.418;10.074;2023-06-19T08:33:38;28.30;55.00
1175;DHT22;576;48.418;10.074;2023-06-19T08:36:06;28.30;54.80
1175;DHT22;576;48.418;10.074;2023-06-19T08:38:34;28.40;54.90
1175;DHT22;576;48.418;10.074;2023-06-19T08:41:03;28.40;54.90
1175;DHT22;576;48.418;10.074;2023-06-19T08:43:33;28.40;55.00
1175;DHT22;576;48.418;10.074;2023-06-19T08:46:09;28.40;54.80
1175;DHT22;576;48.418;10.074;2023-06-19T08:48:38;28.40;54.90
1175;DHT22;576;48.418;10.074;2023-06-19T08:51:06;28.50;54.70
1175;DHT22;576;48.418;10.074;2023-06-19T08:53:36;28.50;54.60
1175;DHT22;576;48.418;10.074;2023-06-19T08:56:06;28.50;54.50
1175;DHT22;576;48.418;10.074;2023-06-19T08:58:35;28.50;54.60
1175;DHT22;576;48.418;10.074;2023-06-19T09:01:04;28.50;54.60
1175;DHT22;576;48.418;10.074;2023-06-19T09:03:32;28.50;54.50
1175;DHT22;576;48.418;10.074;2023-06-19T09:06:03;28.50;54.60
1175;DHT22;576;48.418;10.074;2023-06-19T09:08:32;28.50;54.50
1175;DHT22;576;48.418;10.074;2023-06-19T09:11:01;28.50;54.70
1175;DHT22;576;48.418;10.074;2023-06-19T09:13:31;28.50;54.60
1175;DHT22;576;48.418;10.074;2023-06-19T09:16:03;28.50;54.60
1175;DHT22;576;48.418;10.074;2023-06-19T09:18:42;28.50;54.60
1175;DHT22;576;48.418;10.074;2023-06-19T09:21:15;28.30;57.30
1175;DHT22;576;48.418;10.074;2023-06-19T09:23:45;28.10;57.50
1175;DHT22;576;48.418;10.074;2023-06-19T09:26:16;27.80;58.10
1175;DHT22;576;48.418;10.074;2023-06-19T09:28:46;27.70;58.50
1175;DHT22;576;48.418;10.074;2023-06-19T09:31:18;27.70;59.10
1175;DHT22;576;48.418;10.074;2023-06-19T09:33:46;27.50;59.00
1175;DHT22;576;48.418;10.074;2023-06-19T09:36:15;27.40;59.20
1175;DHT22;576;48.418;10.074;2023-06-19T09:38:44;27.40;59.50
1175;DHT22;576;48.418;10.074;2023-06-19T09:41:15;27.40;59.30
1175;DHT22;576;48.418;10.074;2023-06-19T09:43:44;27.40;59.50
1175;DHT22;576;48.418;10.074;2023-06-19T09:46:18;27.50;59.40
1175;DHT22;576;48.418;10.074;2023-06-19T09:48:48;27.60;59.30
1175;DHT22;576;48.418;10.074;2023-06-19T09:51:25;27.50;59.20
1175;DHT22;576;48.418;10.074;2023-06-19T09:53:57;27.40;59.10
1175;DHT22;576;48.418;10.074;2023-06-19T09:56:27;27.30;59.70
1175;DHT22;576;48.418;10.074;2023-06-19T09:58:57;27.40;59.90
1175;DHT22;576;48.418;10.074;2023-06-19T10:01:30;27.40;60.00
1175;DHT22;576;48.418;10.074;2023-06-19T10:04:04;27.50;59.30
1175;DHT22;576;48.418;10.074;2023-06-19T10:06:32;27.60;59.30
1175;DHT22;576;48.418;10.074;2023-06-19T10:09:08;27.70;60.10
1175;DHT22;576;48.418;10.074;2023-06-19T10:11:50;27.50;60.20
1175;DHT22;576;48.418;10.074;2023-06-19T10:14:19;27.50;60.20
1175;DHT22;576;48.418;10.074;2023-06-19T10:16:49;27.50;60.50
1175;DHT22;576;48.418;10.074;2023-06-19T10:19:20;27.50;60.60
1175;DHT22;576;48.418;10.074;2023-06-19T10:21:52;27.50;59.90
1175;DHT22;576;48.418;10.074;2023-06-19T10:24:20;27.50;59.40
1175;DHT22;576;48.418;10.074;2023-06-19T10:26:59;27.50;59.40
1175;DHT22;576;48.418;10.074;2023-06-19T10:29:38;27.50;59.70
1175;DHT22;576;48.418;10.074;2023-06-19T10:32:09;27.60;59.90
1175;DHT22;576;48.418;10.074;2023-06-19T10:34:37;27.70;58.90
1175;DHT22;576;48.418;10.074;2023-06-19T10:37:06;27.70;59.40
1175;DHT22;576;48.418;10.074;2023-06-19T10:39:34;27.80;59.10
1175;DHT22;576;48.418;10.074;2023-06-19T10:42:06;27.80;59.10
1175;DHT22;576;48.418;10.074;2023-06-19T10:44:34;27.90;59.10
1175;DHT22;576;48.418;10.074;2023-06-19T10:47:04;28.00;59.20
1175;DHT22;576;48.418;10.074;2023-06-19T10:49:35;28.10;58.70
1175;DHT22;576;48.418;10.074;2023-06-19T10:52:04;28.10;58.40
1175;DHT22;576;48.418;10.074;2023-06-19T10:54:32;28.20;58.60
1175;DHT22;576;48.418;10.074;2023-06-19T10:57:04;28.20;59.00
1175;DHT22;576;48.418;10.074;2023-06-19T10:59:33;28.20;59.10
1175;DHT22;576;48.418;10.074;2023-06-19T11:02:02;28.20;58.40
1175;DHT22;576;48.418;10.074;2023-06-19T11:04:38;28.30;58.50
1175;DHT22;576;48.418;10.074;2023-06-19T11:07:07;28.30;58.40
1175;DHT22;576;48.418;10.074;2023-06-19T11:09:36;28.30;58.20
1175;DHT22;576;48.418;10.074;2023-06-19T11:12:11;28.40;58.10
1175;DHT22;576;48.418;10.074;2023-06-19T11:14:39;28.40;58.10
1175;DHT22;576;48.418;10.074;2023-06-19T11:17:09;28.50;58.00
1175;DHT22;576;48.418;10.074;2023-06-19T11:19:39;28.50;58.00
1175;DHT22;576;48.418;10.074;2023-06-19T11:22:09;28.60;57.90
1175;DHT22;576;48.418;10.074;2023-06-19T11:24:43;28.60;57.30
1175;DHT22;576;48.418;10.074;2023-06-19T11:27:20;28.60;57.20
1175;DHT22;576;48.418;10.074;2023-06-19T11:29:58;28.50;57.40
1175;DHT22;576;48.418;10.074;2023-06-19T11:32:30;28.60;57.10
1175;DHT22;576;48.418;10.074;2023-06-19T11:35:06;28.60;56.70
1175;DHT22;576;48.418;10.074;2023-06-19T11:37:35;28.60;57.20
1175;DHT22;576;48.418;10.074;2023-06-19T11:40:04;28.70;57.00
1175;DHT22;576;48.418;10.074;2023-06-19T11:42:47;28.80;56.30
1175;DHT22;576;48.418;10.074;2023-06-19T11:45:16;28.90;56.70
1175;DHT22;576;48.418;10.074;2023-06-19T11:47:44;29.00;56.20
1175;DHT22;576;48.418;10.074;2023-06-19T11:50:16;29.10;55.60
1175;DHT22;576;48.418;10.074;2023-06-19T11:52:46;29.20;55.40
1175;DHT22;576;48.418;10.074;2023-06-19T11:55:15;29.10;55.50
1175;DHT22;576;48.418;10.074;2023-06-19T11:57:43;29.00;55.50
1175;DHT22;576;48.418;10.074;2023-06-19T12:00:16;29.00;55.60
1175;DHT22;576;48.418;10.074;2023-06-19T12:02:45;29.00;55.50
1175;DHT22;576;48.418;10.074;2023-06-19T12:05:16;29.00;55.50
1175;DHT22;576;48.418;10.074;2023-06-19T12:07:44;29.00;55.70
1175;DHT22;576;48.418;10.074;2023-06-19T12:10:13;29.10;55.60
1175;DHT22;576;48.418;10.074;2023-06-19T12:12:41;29.20;55.60
1175;DHT22;576;48.418;10.074;2023-06-19T12:15:10;29.20;55.40
1175;DHT22;576;48.418;10.074;2023-06-19T12:17:38;29.40;55.00
1175;DHT22;576;48.418;10.074;2023-06-19T12:20:07;29.60;54.70
1175;DHT22;576;48.418;10.074;2023-06-19T12:22:37;29.90;53.70
1175;DHT22;576;48.418;10.074;2023-06-19T12:25:05;30.10;53.30
1175;DHT22;576;48.418;10.074;2023-06-19T12:27:34;30.00;53.70
1175;DHT22;576;48.418;10.074;2023-06-19T12:30:03;30.00;53.70
1175;DHT22;576;48.418;10.074;2023-06-19T12:32:31;29.90;53.80
1175;DHT22;576;48.418;10.074;2023-06-19T12:34:59;29.90;53.90
1175;DHT22;576;48.418;10.074;2023-06-19T12:37:28;29.90;53.90
1175;DHT22;576;48.418;10.074;2023-06-19T12:39:57;30.00;53.70
1175;DHT22;576;48.418;10.074;2023-06-19T12:42:25;30.10;52.70
1175;DHT22;576;48.418;10.074;2023-06-19T12:44:54;30.10;52.80
1175;DHT22;576;48.418;10.074;2023-06-19T12:47:23;30.20;52.20
1175;DHT22;576;48.418;10.074;2023-06-19T12:49:52;30.30;52.50
1175;DHT22;576;48.418;10.074;2023-06-19T12:52:21;30.30;52.60
1175;DHT22;576;48.418;10.074;2023-06-19T12:54:49;30.30;52.60
1175;DHT22;576;48.418;10.074;2023-06-19T12:57:20;30.40;52.40
1175;DHT22;576;48.418;10.074;2023-06-19T12:59:49;30.40;52.30
1175;DHT22;576;48.418;10.074;2023-06-19T13:02:17;30.50;51.60
1175;DHT22;576;48.418;10.074;2023-06-19T13:04:45;30.60;52.30
1175;DHT22;576;48.418;10.074;2023-06-19T13:07:14;30.60;52.30
1175;DHT22;576;48.418;10.074;2023-06-19T13:09:43;30.40;52.50
1175;DHT22;576;48.418;10.074;2023-06-19T13:12:12;30.30;52.60
1175;DHT22;576;48.418;10.074;2023-06-19T13:14:43;30.10;52.90
1175;DHT22;576;48.418;10.074;2023-06-19T13:17:11;30.00;53.50
1175;DHT22;576;48.418;10.074;2023-06-19T13:19:40;30.00;53.60
1175;DHT22;576;48.418;10.074;2023-06-19T13:22:08;30.00;53.70
1175;DHT22;576;48.418;10.074;2023-06-19T13:24:37;30.00;53.60
1175;DHT22;576;48.418;10.074;2023-06-19T13:27:05;30.00;53.60
1175;DHT22;576;48.418;10.074;2023-06-19T13:29:34;30.00;53.80
1175;DHT22;576;48.418;10.074;2023-06-19T13:32:04;30.00;53.50
1175;DHT22;576;48.418;10.074;2023-06-19T13:34:32;30.00;53.60
1175;DHT22;576;48.418;10.074;2023-06-19T13:37:00;30.00;53.70
1175;DHT22;576;48.418;10.074;2023-06-19T13:39:29;30.00;53.80
1175;DHT22;576;48.418;10.074;2023-06-19T13:41:58;30.00;53.80
1175;DHT22;576;48.418;10.074;2023-06-19T13:44:29;29.90;54.00
1175;DHT22;576;48.418;10.074;2023-06-19T13:46:57;29.90;54.10
1175;DHT22;576;48.418;10.074;2023-06-19T13:49:31;29.90;54.10
1175;DHT22;576;48.418;10.074;2023-06-19T13:52:00;29.90;54.40
1175;DHT22;576;48.418;10.074;2023-06-19T13:54:29;29.90;54.10
1175;DHT22;576;48.418;10.074;2023-06-19T13:56:58;29.90;54.00
1175;DHT22;576;48.418;10.074;2023-06-19T13:59:27;30.00;53.90
1175;DHT22;576;48.418;10.074;2023-06-19T14:01:56;29.90;53.80
1175;DHT22;576;48.418;10.074;2023-06-19T14:04:25;29.80;53.90
1175;DHT22;576;48.418;10.074;2023-06-19T14:06:57;29.80;53.90
1175;DHT22;576;48.418;10.074;2023-06-19T14:09:25;29.70;54.10
1175;DHT22;576;48.418;10.074;2023-06-19T14:11:53;29.80;54.20
1175;DHT22;576;48.418;10.074;2023-06-19T14:14:22;29.80;54.40
1175;DHT22;576;48.418;10.074;2023-06-19T14:16:51;29.80;54.40
1175;DHT22;576;48.418;10.074;2023-06-19T14:19:20;29.90;54.40
1175;DHT22;576;48.418;10.074;2023-06-19T14:21:51;29.90;54.30
1175;DHT22;576;48.418;10.074;2023-06-19T14:24:23;30.00;54.20
1175;DHT22;576;48.418;10.074;2023-06-19T14:26:52;30.00;54.30
1175;DHT22;576;48.418;10.074;2023-06-19T14:29:20;30.00;54.10
1175;DHT22;576;48.418;10.074;2023-06-19T14:31:50;30.00;54.00
1175;DHT22;576;48.418;10.074;2023-06-19T14:34:19;30.00;53.90
1175;DHT22;576;48.418;10.074;2023-06-19T14:36:48;30.00;54.10
1175;DHT22;576;48.418;10.074;2023-06-19T14:39:17;30.10;54.00
1175;DHT22;576;48.418;10.074;2023-06-19T14:41:48;30.10;53.90
1175;DHT22;576;48.418;10.074;2023-06-19T14:44:16;30.20;54.00
1175;DHT22;576;48.418;10.074;2023-06-19T14:46:45;30.20;54.10
1175;DHT22;576;48.418;10.074;2023-06-19T14:49:14;30.20;54.10
1175;DHT22;576;48.418;10.074;2023-06-19T14:51:42;30.20;54.10
1175;DHT22;576;48.418;10.074;2023-06-19T14:58:13;30.20;54.20
1175;DHT22;576;48.418;10.074;2023-06-19T15:00:42;30.30;54.10
1175;DHT22;576;48.418;10.074;2023-06-19T15:03:11;30.30;54.20
1175;DHT22;576;48.418;10.074;2023-06-19T15:05:39;30.30;53.90
1175;DHT22;576;48.418;10.074;2023-06-19T15:08:07;30.30;53.60
1175;DHT22;576;48.418;10.074;2023-06-19T15:10:37;30.30;53.70
1175;DHT22;576;48.418;10.074;2023-06-19T15:13:05;30.20;53.70
1175;DHT22;576;48.418;10.074;2023-06-19T15:15:35;30.20;53.70
1175;DHT22;576;48.418;10.074;2023-06-19T15:18:04;30.20;53.50
1175;DHT22;576;48.418;10.074;2023-06-19T15:20:34;30.20;53.40
1175;DHT22;576;48.418;10.074;2023-06-19T15:23:04;30.20;53.50
1175;DHT22;576;48.418;10.074;2023-06-19T15:25:33;30.20;53.50
1175;DHT22;576;48.418;10.074;2023-06-19T15:28:02;30.10;53.60
1175;DHT22;576;48.418;10.074;2023-06-19T15:30:31;30.10;53.70
1175;DHT22;576;48.418;10.074;2023-06-19T15:33:01;30.00;53.80
1175;DHT22;576;48.418;10.074;2023-06-19T15:35:30;30.10;53.80
1175;DHT22;576;48.418;10.074;2023-06-19T15:37:59;30.10;53.70
1175;DHT22;576;48.418;10.074;2023-06-19T15:40:28;30.10;53.50
1175;DHT22;576;48.418;10.074;2023-06-19T15:42:57;30.10;53.60
1175;DHT22;576;48.418;10.074;2023-06-19T15:45:26;30.10;53.50
1175;DHT22;576;48.418;10.074;2023-06-19T15:47:55;30.10;53.40
1175;DHT22;576;48.418;10.074;2023-06-19T15:50:26;30.20;53.30
1175;DHT22;576;48.418;10.074;2023-06-19T15:52:55;30.20;53.40
1175;DHT22;576;48.418;10.074;2023-06-19T15:55:24;30.20;53.60
1175;DHT22;576;48.418;10.074;2023-06-19T15:57:54;30.10;53.80
1175;DHT22;576;48.418;10.074;2023-06-19T16:00:23;30.00;54.10
1175;DHT22;576;48.418;10.074;2023-06-19T16:02:56;30.00;54.10
1175;DHT22;576;48.418;10.074;2023-06-19T16:08:21;29.90;54.30
1175;DHT22;576;48.418;10.074;2023-06-19T16:10:51;29.80;54.30
1175;DHT22;576;48.418;10.074;2023-06-19T16:13:19;29.70;54.40
1175;DHT22;576;48.418;10.074;2023-06-19T16:15:47;29.60;54.60
1175;DHT22;576;48.418;10.074;2023-06-19T16:18:15;29.60;55.00
1175;DHT22;576;48.418;10.074;2023-06-19T16:20:44;29.50;55.00
1175;DHT22;576;48.418;10.074;2023-06-19T16:23:12;29.50;55.00